sensor_id;sensor_type;location;lat;lon;timestamp;temperature;humidity
61374;DHT22;47242;48.158;-1.586;2022-10-16T00:00:42;16.00;81.90
61374;DHT22;47242;48.158;-1.586;2022-10-16T00:03:08;16.00;81.90
61374;DHT22;47242;48.158;-1.586;2022-10-16T00:05:38;15.90;82.10
61374;DHT22;47242;48.158;-1.586;2022-10-16T00:08:05;15.90;82.20
61374;DHT22;47242;48.158;-1.586;2022-10-16T00:10:30;16.00;82.20
61374;DHT22;47242;48.158;-1.586;2022-10-16T00:12:56;15.90;82.50
61374;DHT22;47242;48.158;-1.586;2022-10-16T00:15:22;15.90;82.50
61374;DHT22;47242;48.158;-1.586;2022-10-16T00:17:47;15.90;82.70
61374;DHT22;47242;48.158;-1.586;2022-10-16T00:20:13;15.90;82.80
61374;DHT22;47242;48.158;-1.586;2022-10-16T00:22:39;15.90;82.80
61374;DHT22;47242;48.158;-1.586;2022-10-16T00:25:05;15.90;82.60
61374;DHT22;47242;48.158;-1.586;2022-10-16T00:27:31;15.90;82.80
61374;DHT22;47242;48.158;-1.586;2022-10-16T00:29:57;15.90;82.90
61374;DHT22;47242;48.158;-1.586;2022-10-16T00:32:23;15.90;82.90
61374;DHT22;47242;48.158;-1.586;2022-10-16T00:34:49;15.90;83.00
61374;DHT22;47242;48.158;-1.586;2022-10-16T00:37:15;15.90;83.10
61374;DHT22;47242;48.158;-1.586;2022-10-16T00:39:40;15.90;83.20
61374;DHT22;47242;48.158;-1.586;2022-10-16T00:42:06;15.90;83.20
61374;DHT22;47242;48.158;-1.586;2022-10-16T00:45:09;15.90;83.60
61374;DHT22;47242;48.158;-1.586;2022-10-16T00:47:43;15.90;83.70
61374;DHT22;47242;48.158;-1.586;2022-10-16T00:50:24;15.90;83.80
61374;DHT22;47242;48.158;-1.586;2022-10-16T00:52:52;15.90;83.90
61374;DHT22;47242;48.158;-1.586;2022-10-16T00:55:18;15.90;84.00
61374;DHT22;47242;48.158;-1.586;2022-10-16T00:57:45;15.90;84.00
61374;DHT22;47242;48.158;-1.586;2022-10-16T01:00:14;15.90;84.20
61374;DHT22;47242;48.158;-1.586;2022-10-16T01:02:41;15.90;84.10
61374;DHT22;47242;48.158;-1.586;2022-10-16T01:05:06;15.90;84.30
61374;DHT22;47242;48.158;-1.586;2022-10-16T01:16:40;16.00;84.20
61374;DHT22;47242;48.158;-1.586;2022-10-16T01:19:40;16.00;84.20
61374;DHT22;47242;48.158;-1.586;2022-10-16T01:22:09;16.00;84.20
61374;DHT22;47242;48.158;-1.586;2022-10-16T01:24:45;16.00;84.20
61374;DHT22;47242;48.158;-1.586;2022-10-16T01:27:26;16.00;84.20
61374;DHT22;47242;48.158;-1.586;2022-10-16T01:30:11;16.00;84.30
61374;DHT22;47242;48.158;-1.586;2022-10-16T01:32:50;16.00;84.40
61374;DHT22;47242;48.158;-1.586;2022-10-16T01:35:38;16.00;84.60
61374;DHT22;47242;48.158;-1.586;2022-10-16T01:40:38;16.00;84.50
61374;DHT22;47242;48.158;-1.586;2022-10-16T01:43:12;16.00;84.60
61374;DHT22;47242;48.158;-1.586;2022-10-16T01:45:41;16.00;84.50
61374;DHT22;47242;48.158;-1.586;2022-10-16T01:48:12;16.00;84.60
61374;DHT22;47242;48.158;-1.586;2022-10-16T01:50:41;16.00;84.50
61374;DHT22;47242;48.158;-1.586;2022-10-16T01:53:09;16.00;84.40
61374;DHT22;47242;48.158;-1.586;2022-10-16T01:55:40;16.00;84.60
61374;DHT22;47242;48.158;-1.586;2022-10-16T01:58:11;16.00;84.80
61374;DHT22;47242;48.158;-1.586;2022-10-16T02:00:40;16.00;84.80
61374;DHT22;47242;48.158;-1.586;2022-10-16T02:03:07;16.00;84.80
61374;DHT22;47242;48.158;-1.586;2022-10-16T02:08:08;16.00;84.70
61374;DHT22;47242;48.158;-1.586;2022-10-16T02:10:35;16.00;84.60
61374;DHT22;47242;48.158;-1.586;2022-10-16T02:13:22;15.90;84.70
61374;DHT22;47242;48.158;-1.586;2022-10-16T02:15:49;15.90;84.60
61374;DHT22;47242;48.158;-1.586;2022-10-16T02:18:15;15.90;84.70
61374;DHT22;47242;48.158;-1.586;2022-10-16T02:21:47;15.90;84.60
61374;DHT22;47242;48.158;-1.586;2022-10-16T02:23:56;15.90;84.60
61374;DHT22;47242;48.158;-1.586;2022-10-16T02:26:31;15.90;84.40
61374;DHT22;47242;48.158;-1.586;2022-10-16T02:29:02;15.90;84.40
61374;DHT22;47242;48.158;-1.586;2022-10-16T02:31:34;15.90;84.40
61374;DHT22;47242;48.158;-1.586;2022-10-16T02:34:03;15.90;84.50
61374;DHT22;47242;48.158;-1.586;2022-10-16T02:36:31;15.90;84.60
61374;DHT22;47242;48.158;-1.586;2022-10-16T02:38:58;15.90;84.80
61374;DHT22;47242;48.158;-1.586;2022-10-16T02:41:26;15.90;84.70
61374;DHT22;47242;48.158;-1.586;2022-10-16T02:43:51;15.90;84.60
61374;DHT22;47242;48.158;-1.586;2022-10-16T02:46:17;15.90;84.60
61374;DHT22;47242;48.158;-1.586;2022-10-16T02:48:43;15.90;84.50
61374;DHT22;47242;48.158;-1.586;2022-10-16T02:51:09;15.90;84.50
61374;DHT22;47242;48.158;-1.586;2022-10-16T02:53:34;15.90;84.40
61374;DHT22;47242;48.158;-1.586;2022-10-16T02:56:00;15.80;84.40
61374;DHT22;47242;48.158;-1.586;2022-10-16T02:58:28;15.80;84.60
61374;DHT22;47242;48.158;-1.586;2022-10-16T03:00:55;15.80;84.70
61374;DHT22;47242;48.158;-1.586;2022-10-16T03:03:21;15.80;84.60
61374;DHT22;47242;48.158;-1.586;2022-10-16T03:05:46;15.80;84.70
61374;DHT22;47242;48.158;-1.586;2022-10-16T03:08:13;15.80;84.60
61374;DHT22;47242;48.158;-1.586;2022-10-16T03:10:39;15.80;84.60
61374;DHT22;47242;48.158;-1.586;2022-10-16T03:13:22;15.80;84.70
61374;DHT22;47242;48.158;-1.586;2022-10-16T03:15:47;15.80;84.70
61374;DHT22;47242;48.158;-1.586;2022-10-16T03:18:13;15.80;84.70
61374;DHT22;47242;48.158;-1.586;2022-10-16T03:20:39;15.80;84.80
61374;DHT22;47242;48.158;-1.586;2022-10-16T03:23:04;15.80;84.80
61374;DHT22;47242;48.158;-1.586;2022-10-16T03:25:30;15.80;84.70
61374;DHT22;47242;48.158;-1.586;2022-10-16T03:27:56;15.80;84.60
61374;DHT22;47242;48.158;-1.586;2022-10-16T03:30:24;15.80;84.70
61374;DHT22;47242;48.158;-1.586;2022-10-16T03:32:49;15.80;84.80
61374;DHT22;47242;48.158;-1.586;2022-10-16T03:35:19;15.80;84.90
61374;DHT22;47242;48.158;-1.586;2022-10-16T03:37:45;15.80;85.00
61374;DHT22;47242;48.158;-1.586;2022-10-16T03:40:11;15.80;84.90
61374;DHT22;47242;48.158;-1.586;2022-10-16T03:42:37;15.80;85.10
61374;DHT22;47242;48.158;-1.586;2022-10-16T03:45:03;15.80;85.10
61374;DHT22;47242;48.158;-1.586;2022-10-16T03:47:28;15.80;85.10
61374;DHT22;47242;48.158;-1.586;2022-10-16T03:49:54;15.80;85.00
61374;DHT22;47242;48.158;-1.586;2022-10-16T03:52:19;15.80;85.00
61374;DHT22;47242;48.158;-1.586;2022-10-16T03:54:45;15.80;85.00
61374;DHT22;47242;48.158;-1.586;2022-10-16T03:57:11;15.80;85.00
61374;DHT22;47242;48.158;-1.586;2022-10-16T03:59:36;15.80;85.10
61374;DHT22;47242;48.158;-1.586;2022-10-16T04:02:02;15.80;85.10
61374;DHT22;47242;48.158;-1.586;2022-10-16T04:04:28;15.80;85.30
61374;DHT22;47242;48.158;-1.586;2022-10-16T04:06:53;15.80;85.50
61374;DHT22;47242;48.158;-1.586;2022-10-16T04:09:19;15.80;85.30
61374;DHT22;47242;48.158;-1.586;2022-10-16T04:11:45;15.80;85.20
61374;DHT22;47242;48.158;-1.586;2022-10-16T04:14:10;15.80;85.10
61374;DHT22;47242;48.158;-1.586;2022-10-16T04:16:36;15.80;85.10
61374;DHT22;47242;48.158;-1.586;2022-10-16T04:19:02;15.90;85.20
61374;DHT22;47242;48.158;-1.586;2022-10-16T04:21:27;15.80;85.20
61374;DHT22;47242;48.158;-1.586;2022-10-16T04:23:53;15.80;85.20
61374;DHT22;47242;48.158;-1.586;2022-10-16T04:26:18;15.90;85.20
61374;DHT22;47242;48.158;-1.586;2022-10-16T04:28:44;15.80;85.10
61374;DHT22;47242;48.158;-1.586;2022-10-16T04:31:10;15.90;85.20
61374;DHT22;47242;48.158;-1.586;2022-10-16T04:33:35;15.90;85.30
61374;DHT22;47242;48.158;-1.586;2022-10-16T04:36:02;15.90;85.30
61374;DHT22;47242;48.158;-1.586;2022-10-16T04:38:28;15.90;85.30
61374;DHT22;47242;48.158;-1.586;2022-10-16T04:40:54;15.80;85.50
61374;DHT22;47242;48.158;-1.586;2022-10-16T04:43:20;15.90;85.40
61374;DHT22;47242;48.158;-1.586;2022-10-16T04:45:46;15.90;85.20
61374;DHT22;47242;48.158;-1.586;2022-10-16T04:48:11;15.90;85.30
61374;DHT22;47242;48.158;-1.586;2022-10-16T04:50:37;16.00;85.30
61374;DHT22;47242;48.158;-1.586;2022-10-16T04:53:03;16.00;85.20
61374;DHT22;47242;48.158;-1.586;2022-10-16T04:55:33;16.00;85.20
61374;DHT22;47242;48.158;-1.586;2022-10-16T04:58:06;16.00;85.30
61374;DHT22;47242;48.158;-1.586;2022-10-16T05:00:32;16.00;85.40
61374;DHT22;47242;48.158;-1.586;2022-10-16T05:02:57;16.00;85.40
61374;DHT22;47242;48.158;-1.586;2022-10-16T05:05:25;16.00;85.20
61374;DHT22;47242;48.158;-1.586;2022-10-16T05:07:50;16.00;85.30
61374;DHT22;47242;48.158;-1.586;2022-10-16T05:10:16;16.00;85.10
61374;DHT22;47242;48.158;-1.586;2022-10-16T05:12:42;16.00;85.00
61374;DHT22;47242;48.158;-1.586;2022-10-16T05:15:08;16.00;85.00
61374;DHT22;47242;48.158;-1.586;2022-10-16T05:17:34;16.00;85.00
61374;DHT22;47242;48.158;-1.586;2022-10-16T05:20:00;16.10;84.90
61374;DHT22;47242;48.158;-1.586;2022-10-16T05:22:25;16.10;85.00
61374;DHT22;47242;48.158;-1.586;2022-10-16T05:24:51;16.10;84.90
61374;DHT22;47242;48.158;-1.586;2022-10-16T05:27:16;16.10;84.80
61374;DHT22;47242;48.158;-1.586;2022-10-16T05:29:48;16.10;84.80
61374;DHT22;47242;48.158;-1.586;2022-10-16T05:32:15;16.10;84.90
61374;DHT22;47242;48.158;-1.586;2022-10-16T05:34:42;16.20;84.80
61374;DHT22;47242;48.158;-1.586;2022-10-16T05:37:07;16.20;84.80
61374;DHT22;47242;48.158;-1.586;2022-10-16T05:39:33;16.20;84.90
61374;DHT22;47242;48.158;-1.586;2022-10-16T05:41:59;16.10;85.00
61374;DHT22;47242;48.158;-1.586;2022-10-16T05:44:24;16.10;85.20
61374;DHT22;47242;48.158;-1.586;2022-10-16T05:46:53;16.10;85.00
61374;DHT22;47242;48.158;-1.586;2022-10-16T05:49:21;16.10;84.90
61374;DHT22;47242;48.158;-1.586;2022-10-16T05:51:46;16.10;84.90
61374;DHT22;47242;48.158;-1.586;2022-10-16T05:54:12;16.20;85.00
61374;DHT22;47242;48.158;-1.586;2022-10-16T05:56:38;16.20;85.00
61374;DHT22;47242;48.158;-1.586;2022-10-16T05:59:04;16.20;85.10
61374;DHT22;47242;48.158;-1.586;2022-10-16T06:01:30;16.20;85.30
61374;DHT22;47242;48.158;-1.586;2022-10-16T06:03:58;16.10;85.60
61374;DHT22;47242;48.158;-1.586;2022-10-16T06:06:26;16.10;85.60
61374;DHT22;47242;48.158;-1.586;2022-10-16T06:08:52;16.10;85.50
61374;DHT22;47242;48.158;-1.586;2022-10-16T06:11:27;16.00;85.60
61374;DHT22;47242;48.158;-1.586;2022-10-16T06:13:55;16.10;85.90
61374;DHT22;47242;48.158;-1.586;2022-10-16T06:16:22;16.00;86.00
61374;DHT22;47242;48.158;-1.586;2022-10-16T06:18:50;16.00;86.00
61374;DHT22;47242;48.158;-1.586;2022-10-16T06:21:20;16.10;86.00
61374;DHT22;47242;48.158;-1.586;2022-10-16T06:23:47;16.00;86.10
61374;DHT22;47242;48.158;-1.586;2022-10-16T06:26:15;16.00;86.10
61374;DHT22;47242;48.158;-1.586;2022-10-16T06:28:41;16.00;86.20
61374;DHT22;47242;48.158;-1.586;2022-10-16T06:31:08;16.00;86.10
61374;DHT22;47242;48.158;-1.586;2022-10-16T06:33:35;16.00;86.10
61374;DHT22;47242;48.158;-1.586;2022-10-16T06:36:06;16.10;85.80
61374;DHT22;47242;48.158;-1.586;2022-10-16T06:38:32;16.20;85.80
61374;DHT22;47242;48.158;-1.586;2022-10-16T06:40:58;16.20;85.80
61374;DHT22;47242;48.158;-1.586;2022-10-16T06:43:24;16.10;86.00
61374;DHT22;47242;48.158;-1.586;2022-10-16T06:45:52;16.00;86.30
61374;DHT22;47242;48.158;-1.586;2022-10-16T06:48:19;16.10;86.40
61374;DHT22;47242;48.158;-1.586;2022-10-16T06:53:31;16.00;86.50
61374;DHT22;47242;48.158;-1.586;2022-10-16T06:55:58;16.00;86.50
61374;DHT22;47242;48.158;-1.586;2022-10-16T06:58:23;16.00;86.60
61374;DHT22;47242;48.158;-1.586;2022-10-16T07:00:55;16.10;86.60
61374;DHT22;47242;48.158;-1.586;2022-10-16T07:03:21;16.10;86.50
61374;DHT22;47242;48.158;-1.586;2022-10-16T07:05:47;16.20;86.40
61374;DHT22;47242;48.158;-1.586;2022-10-16T07:08:12;16.20;86.40
61374;DHT22;47242;48.158;-1.586;2022-10-16T07:10:38;16.20;86.30
61374;DHT22;47242;48.158;-1.586;2022-10-16T07:13:03;16.20;86.30
61374;DHT22;47242;48.158;-1.586;2022-10-16T07:15:29;16.20;86.20
61374;DHT22;47242;48.158;-1.586;2022-10-16T07:17:55;16.20;86.20
61374;DHT22;47242;48.158;-1.586;2022-10-16T07:20:20;16.30;86.10
61374;DHT22;47242;48.158;-1.586;2022-10-16T07:22:46;16.30;86.50
61374;DHT22;47242;48.158;-1.586;2022-10-16T07:25:12;16.30;86.50
61374;DHT22;47242;48.158;-1.586;2022-10-16T07:27:38;16.30;86.60
61374;DHT22;47242;48.158;-1.586;2022-10-16T07:30:04;16.30;86.70
61374;DHT22;47242;48.158;-1.586;2022-10-16T07:32:31;16.30;86.80
61374;DHT22;47242;48.158;-1.586;2022-10-16T07:34:56;16.30;86.80
61374;DHT22;47242;48.158;-1.586;2022-10-16T07:37:22;16.30;86.70
61374;DHT22;47242;48.158;-1.586;2022-10-16T07:39:48;16.30;86.70
61374;DHT22;47242;48.158;-1.586;2022-10-16T07:42:13;16.30;86.50
61374;DHT22;47242;48.158;-1.586;2022-10-16T07:44:39;16.40;86.30
61374;DHT22;47242;48.158;-1.586;2022-10-16T07:47:07;16.40;86.20
61374;DHT22;47242;48.158;-1.586;2022-10-16T07:49:32;16.50;86.00
61374;DHT22;47242;48.158;-1.586;2022-10-16T07:51:58;16.60;85.60
61374;DHT22;47242;48.158;-1.586;2022-10-16T07:54:24;16.60;85.30
61374;DHT22;47242;48.158;-1.586;2022-10-16T07:56:49;16.50;84.80
61374;DHT22;47242;48.158;-1.586;2022-10-16T07:59:15;16.50;84.80
61374;DHT22;47242;48.158;-1.586;2022-10-16T08:01:40;16.50;84.50
61374;DHT22;47242;48.158;-1.586;2022-10-16T08:04:08;16.50;84.80
61374;DHT22;47242;48.158;-1.586;2022-10-16T08:06:39;16.50;84.60
61374;DHT22;47242;48.158;-1.586;2022-10-16T08:09:06;16.60;84.30
61374;DHT22;47242;48.158;-1.586;2022-10-16T08:11:32;16.80;84.10
61374;DHT22;47242;48.158;-1.586;2022-10-16T08:13:57;16.80;83.90
61374;DHT22;47242;48.158;-1.586;2022-10-16T08:16:23;17.00;83.60
61374;DHT22;47242;48.158;-1.586;2022-10-16T08:18:50;17.20;83.40
61374;DHT22;47242;48.158;-1.586;2022-10-16T08:21:18;17.20;83.00
61374;DHT22;47242;48.158;-1.586;2022-10-16T08:23:44;17.10;82.60
61374;DHT22;47242;48.158;-1.586;2022-10-16T08:26:10;17.30;83.00
61374;DHT22;47242;48.158;-1.586;2022-10-16T08:28:37;17.30;82.80
61374;DHT22;47242;48.158;-1.586;2022-10-16T08:31:11;17.40;82.80
61374;DHT22;47242;48.158;-1.586;2022-10-16T08:33:38;17.30;82.90
61374;DHT22;47242;48.158;-1.586;2022-10-16T08:36:05;17.30;83.10
61374;DHT22;47242;48.158;-1.586;2022-10-16T08:38:31;17.30;82.80
61374;DHT22;47242;48.158;-1.586;2022-10-16T08:41:26;17.30;83.10
61374;DHT22;47242;48.158;-1.586;2022-10-16T08:47:08;17.20;83.30
61374;DHT22;47242;48.158;-1.586;2022-10-16T08:49:41;17.30;81.70
61374;DHT22;47242;48.158;-1.586;2022-10-16T08:52:12;17.30;81.90
61374;DHT22;47242;48.158;-1.586;2022-10-16T08:54:45;17.30;81.40
61374;DHT22;47242;48.158;-1.586;2022-10-16T08:57:22;17.30;81.30
61374;DHT22;47242;48.158;-1.586;2022-10-16T08:59:48;17.30;81.00
61374;DHT22;47242;48.158;-1.586;2022-10-16T09:02:29;17.30;81.00
61374;DHT22;47242;48.158;-1.586;2022-10-16T09:05:21;17.50;80.80
61374;DHT22;47242;48.158;-1.586;2022-10-16T09:07:51;17.60;80.60
61374;DHT22;47242;48.158;-1.586;2022-10-16T09:13:17;17.70;79.60
61374;DHT22;47242;48.158;-1.586;2022-10-16T09:15:59;17.80;80.10
61374;DHT22;47242;48.158;-1.586;2022-10-16T09:18:37;17.80;79.70
61374;DHT22;47242;48.158;-1.586;2022-10-16T09:21:26;17.90;79.40
61374;DHT22;47242;48.158;-1.586;2022-10-16T09:23:57;17.80;78.40
61374;DHT22;47242;48.158;-1.586;2022-10-16T09:26:23;17.80;78.70
61374;DHT22;47242;48.158;-1.586;2022-10-16T09:28:52;17.90;78.60
61374;DHT22;47242;48.158;-1.586;2022-10-16T09:31:20;17.80;78.50
61374;DHT22;47242;48.158;-1.586;2022-10-16T09:33:57;17.80;79.00
61374;DHT22;47242;48.158;-1.586;2022-10-16T09:36:23;17.90;78.70
61374;DHT22;47242;48.158;-1.586;2022-10-16T09:39:07;17.80;78.70
61374;DHT22;47242;48.158;-1.586;2022-10-16T09:41:36;17.90;78.30
61374;DHT22;47242;48.158;-1.586;2022-10-16T09:44:04;17.80;76.30
61374;DHT22;47242;48.158;-1.586;2022-10-16T09:46:36;17.90;77.30
61374;DHT22;47242;48.158;-1.586;2022-10-16T09:49:26;17.90;76.10
61374;DHT22;47242;48.158;-1.586;2022-10-16T09:51:50;17.90;76.20
61374;DHT22;47242;48.158;-1.586;2022-10-16T09:54:18;17.90;76.30
61374;DHT22;47242;48.158;-1.586;2022-10-16T09:56:45;18.00;75.80
61374;DHT22;47242;48.158;-1.586;2022-10-16T09:59:15;18.00;75.40
61374;DHT22;47242;48.158;-1.586;2022-10-16T10:01:55;18.10;75.70
61374;DHT22;47242;48.158;-1.586;2022-10-16T10:04:23;18.30;75.00
61374;DHT22;47242;48.158;-1.586;2022-10-16T10:06:54;18.50;75.30
61374;DHT22;47242;48.158;-1.586;2022-10-16T10:11:59;18.70;75.20
61374;DHT22;47242;48.158;-1.586;2022-10-16T10:19:53;18.60;73.50
61374;DHT22;47242;48.158;-1.586;2022-10-16T10:22:39;18.60;73.00
61374;DHT22;47242;48.158;-1.586;2022-10-16T10:27:59;18.50;73.70
61374;DHT22;47242;48.158;-1.586;2022-10-16T10:44:37;18.00;74.20
61374;DHT22;47242;48.158;-1.586;2022-10-16T10:49:54;17.90;74.70
61374;DHT22;47242;48.158;-1.586;2022-10-16T10:55:36;17.80;75.20
61374;DHT22;47242;48.158;-1.586;2022-10-16T10:58:07;17.70;76.10
61374;DHT22;47242;48.158;-1.586;2022-10-16T11:09:28;17.60;77.90
61374;DHT22;47242;48.158;-1.586;2022-10-16T11:14:36;17.50;78.10
61374;DHT22;47242;48.158;-1.586;2022-10-16T11:17:23;17.50;78.30
61374;DHT22;47242;48.158;-1.586;2022-10-16T11:19:56;17.50;78.90
61374;DHT22;47242;48.158;-1.586;2022-10-16T11:25:14;17.50;79.50
61374;DHT22;47242;48.158;-1.586;2022-10-16T11:30:25;17.40;79.80
61374;DHT22;47242;48.158;-1.586;2022-10-16T11:36:04;17.30;80.40
61374;DHT22;47242;48.158;-1.586;2022-10-16T11:38:50;17.30;81.00
61374;DHT22;47242;48.158;-1.586;2022-10-16T11:49:47;17.40;81.70
61374;DHT22;47242;48.158;-1.586;2022-10-16T11:54:59;17.50;81.40
61374;DHT22;47242;48.158;-1.586;2022-10-16T11:57:33;17.40;81.30
61374;DHT22;47242;48.158;-1.586;2022-10-16T12:00:05;17.40;81.80
61374;DHT22;47242;48.158;-1.586;2022-10-16T12:05:24;17.30;82.10
61374;DHT22;47242;48.158;-1.586;2022-10-16T12:08:04;17.30;82.70
61374;DHT22;47242;48.158;-1.586;2022-10-16T12:10:32;17.30;83.20
61374;DHT22;47242;48.158;-1.586;2022-10-16T12:13:02;17.20;83.40
61374;DHT22;47242;48.158;-1.586;2022-10-16T12:15:31;17.10;83.50
61374;DHT22;47242;48.158;-1.586;2022-10-16T12:17:57;17.00;84.10
61374;DHT22;47242;48.158;-1.586;2022-10-16T12:20:25;17.00;84.40
61374;DHT22;47242;48.158;-1.586;2022-10-16T12:22:59;17.10;84.40
61374;DHT22;47242;48.158;-1.586;2022-10-16T12:28:00;17.20;84.10
61374;DHT22;47242;48.158;-1.586;2022-10-16T12:30:28;17.20;84.30
61374;DHT22;47242;48.158;-1.586;2022-10-16T12:32:56;17.30;84.40
61374;DHT22;47242;48.158;-1.586;2022-10-16T12:35:26;17.40;84.40
61374;DHT22;47242;48.158;-1.586;2022-10-16T12:37:53;17.40;84.50
61374;DHT22;47242;48.158;-1.586;2022-10-16T12:40:32;17.60;84.20
61374;DHT22;47242;48.158;-1.586;2022-10-16T12:43:10;17.50;83.90
61374;DHT22;47242;48.158;-1.586;2022-10-16T12:45:36;17.40;84.10
61374;DHT22;47242;48.158;-1.586;2022-10-16T12:48:17;17.50;84.50
61374;DHT22;47242;48.158;-1.586;2022-10-16T12:50:43;17.70;84.60
61374;DHT22;47242;48.158;-1.586;2022-10-16T12:53:24;17.60;84.10
61374;DHT22;47242;48.158;-1.586;2022-10-16T12:55:57;17.60;84.90
61374;DHT22;47242;48.158;-1.586;2022-10-16T12:58:46;17.70;85.00
61374;DHT22;47242;48.158;-1.586;2022-10-16T13:09:42;18.00;84.60
61374;DHT22;47242;48.158;-1.586;2022-10-16T13:15:04;18.00;84.50
61374;DHT22;47242;48.158;-1.586;2022-10-16T13:17:58;18.20;84.40
61374;DHT22;47242;48.158;-1.586;2022-10-16T13:20:46;18.30;84.20
61374;DHT22;47242;48.158;-1.586;2022-10-16T13:23:22;18.30;84.30
61374;DHT22;47242;48.158;-1.586;2022-10-16T13:28:40;18.50;84.10
61374;DHT22;47242;48.158;-1.586;2022-10-16T13:31:18;18.60;83.90
61374;DHT22;47242;48.158;-1.586;2022-10-16T13:33:54;18.70;84.00
61374;DHT22;47242;48.158;-1.586;2022-10-16T13:36:26;18.80;83.70
61374;DHT22;47242;48.158;-1.586;2022-10-16T13:39:10;18.80;83.40
61374;DHT22;47242;48.158;-1.586;2022-10-16T13:41:36;18.80;83.70
61374;DHT22;47242;48.158;-1.586;2022-10-16T13:44:02;18.80;83.70
61374;DHT22;47242;48.158;-1.586;2022-10-16T13:46:27;18.80;84.00
61374;DHT22;47242;48.158;-1.586;2022-10-16T13:51:24;18.90;84.10
61374;DHT22;47242;48.158;-1.586;2022-10-16T13:53:50;19.00;84.00
61374;DHT22;47242;48.158;-1.586;2022-10-16T13:56:19;18.90;83.90
61374;DHT22;47242;48.158;-1.586;2022-10-16T13:58:45;19.00;83.80
61374;DHT22;47242;48.158;-1.586;2022-10-16T14:01:19;19.10;83.70
61374;DHT22;47242;48.158;-1.586;2022-10-16T14:03:46;19.20;83.90
61374;DHT22;47242;48.158;-1.586;2022-10-16T14:06:23;19.30;83.50
61374;DHT22;47242;48.158;-1.586;2022-10-16T14:09:28;19.30;83.60
61374;DHT22;47242;48.158;-1.586;2022-10-16T14:11:49;19.40;83.40
61374;DHT22;47242;48.158;-1.586;2022-10-16T14:14:18;19.40;83.20
61374;DHT22;47242;48.158;-1.586;2022-10-16T14:16:44;19.50;83.40
61374;DHT22;47242;48.158;-1.586;2022-10-16T14:19:23;19.50;83.50
61374;DHT22;47242;48.158;-1.586;2022-10-16T14:21:51;19.50;83.30
61374;DHT22;47242;48.158;-1.586;2022-10-16T14:24:34;19.60;83.60
61374;DHT22;47242;48.158;-1.586;2022-10-16T14:27:01;19.60;83.20
61374;DHT22;47242;48.158;-1.586;2022-10-16T14:29:28;19.50;83.40
61374;DHT22;47242;48.158;-1.586;2022-10-16T14:32:01;19.50;83.50
61374;DHT22;47242;48.158;-1.586;2022-10-16T14:34:36;19.40;83.30
61374;DHT22;47242;48.158;-1.586;2022-10-16T14:37:20;19.50;83.60
61374;DHT22;47242;48.158;-1.586;2022-10-16T14:39:52;19.40;83.60
61374;DHT22;47242;48.158;-1.586;2022-10-16T14:42:20;19.50;83.60
61374;DHT22;47242;48.158;-1.586;2022-10-16T14:44:50;19.50;83.60
61374;DHT22;47242;48.158;-1.586;2022-10-16T14:47:20;19.50;83.40
61374;DHT22;47242;48.158;-1.586;2022-10-16T14:49:52;19.50;83.40
61374;DHT22;47242;48.158;-1.586;2022-10-16T14:52:20;19.60;83.40
61374;DHT22;47242;48.158;-1.586;2022-10-16T14:54:49;19.60;83.80
61374;DHT22;47242;48.158;-1.586;2022-10-16T14:57:20;19.60;83.60
61374;DHT22;47242;48.158;-1.586;2022-10-16T14:59:51;19.70;83.60
61374;DHT22;47242;48.158;-1.586;2022-10-16T15:02:35;19.70;83.50
61374;DHT22;47242;48.158;-1.586;2022-10-16T15:05:17;19.80;83.50
61374;DHT22;47242;48.158;-1.586;2022-10-16T15:07:43;19.80;83.40
61374;DHT22;47242;48.158;-1.586;2022-10-16T15:10:10;19.90;83.30
61374;DHT22;47242;48.158;-1.586;2022-10-16T15:12:36;20.00;83.30
61374;DHT22;47242;48.158;-1.586;2022-10-16T15:15:01;20.00;83.20
61374;DHT22;47242;48.158;-1.586;2022-10-16T15:17:27;19.90;83.00
61374;DHT22;47242;48.158;-1.586;2022-10-16T15:19:52;19.90;83.10
61374;DHT22;47242;48.158;-1.586;2022-10-16T15:22:18;20.00;83.40
61374;DHT22;47242;48.158;-1.586;2022-10-16T15:24:44;20.00;83.20
61374;DHT22;47242;48.158;-1.586;2022-10-16T15:27:09;20.00;83.40
61374;DHT22;47242;48.158;-1.586;2022-10-16T15:29:35;20.00;83.20
61374;DHT22;47242;48.158;-1.586;2022-10-16T15:32:01;20.00;83.50
61374;DHT22;47242;48.158;-1.586;2022-10-16T15:34:26;19.90;83.80
61374;DHT22;47242;48.158;-1.586;2022-10-16T15:36:52;19.90;83.90
61374;DHT22;47242;48.158;-1.586;2022-10-16T15:39:19;19.80;83.90
61374;DHT22;47242;48.158;-1.586;2022-10-16T15:41:46;19.80;84.20
61374;DHT22;47242;48.158;-1.586;2022-10-16T15:44:20;19.80;84.40
61374;DHT22;47242;48.158;-1.586;2022-10-16T15:46:46;19.90;84.30
61374;DHT22;47242;48.158;-1.586;2022-10-16T15:49:12;19.90;84.20
61374;DHT22;47242;48.158;-1.586;2022-10-16T15:51:39;19.90;84.20
61374;DHT22;47242;48.158;-1.586;2022-10-16T15:54:05;19.80;84.00
61374;DHT22;47242;48.158;-1.586;2022-10-16T15:56:31;19.80;84.00
61374;DHT22;47242;48.158;-1.586;2022-10-16T15:58:59;19.80;84.10
61374;DHT22;47242;48.158;-1.586;2022-10-16T16:01:25;19.80;83.80
61374;DHT22;47242;48.158;-1.586;2022-10-16T16:03:54;19.90;83.80
61374;DHT22;47242;48.158;-1.586;2022-10-16T16:06:20;19.90;83.70
61374;DHT22;47242;48.158;-1.586;2022-10-16T16:08:46;19.90;83.60
61374;DHT22;47242;48.158;-1.586;2022-10-16T16:11:15;19.90;83.50
61374;DHT22;47242;48.158;-1.586;2022-10-16T16:13:41;19.90;83.50
61374;DHT22;47242;48.158;-1.586;2022-10-16T16:16:08;20.00;83.60
61374;DHT22;47242;48.158;-1.586;2022-10-16T16:18:35;19.90;83.50
61374;DHT22;47242;48.158;-1.586;2022-10-16T16:21:01;19.90;83.60
61374;DHT22;47242;48.158;-1.586;2022-10-16T16:23:27;19.90;83.60
61374;DHT22;47242;48.158;-1.586;2022-10-16T16:26:23;19.90;83.60
61374;DHT22;47242;48.158;-1.586;2022-10-16T16:28:52;19.80;83.70
61374;DHT22;47242;48.158;-1.586;2022-10-16T16:31:18;19.80;83.90
61374;DHT22;47242;48.158;-1.586;2022-10-16T16:33:44;19.80;83.90
61374;DHT22;47242;48.158;-1.586;2022-10-16T16:36:10;19.70;84.00
61374;DHT22;47242;48.158;-1.586;2022-10-16T16:38:36;19.70;84.10
61374;DHT22;47242;48.158;-1.586;2022-10-16T16:41:18;19.70;84.10
61374;DHT22;47242;48.158;-1.586;2022-10-16T16:43:45;19.70;84.30
61374;DHT22;47242;48.158;-1.586;2022-10-16T16:46:11;19.60;84.40
61374;DHT22;47242;48.158;-1.586;2022-10-16T16:48:37;19.60;84.30
61374;DHT22;47242;48.158;-1.586;2022-10-16T16:51:10;19.60;84.40
61374;DHT22;47242;48.158;-1.586;2022-10-16T16:53:42;19.60;84.30
61374;DHT22;47242;48.158;-1.586;2022-10-16T16:56:08;19.50;84.40
61374;DHT22;47242;48.158;-1.586;2022-10-16T16:58:34;19.50;84.50
61374;DHT22;47242;48.158;-1.586;2022-10-16T17:01:01;19.50;84.50
61374;DHT22;47242;48.158;-1.586;2022-10-16T17:03:34;19.40;84.50
61374;DHT22;47242;48.158;-1.586;2022-10-16T17:06:05;19.40;84.50
61374;DHT22;47242;48.158;-1.586;2022-10-16T17:08:33;19.40;84.60
61374;DHT22;47242;48.158;-1.586;2022-10-16T17:11:01;19.40;84.60
61374;DHT22;47242;48.158;-1.586;2022-10-16T17:13:28;19.30;84.60
61374;DHT22;47242;48.158;-1.586;2022-10-16T17:15:54;19.30;84.70